createdAt,value
2022-12-29T00:00:13.464Z,8.81
2022-12-29T00:03:02.168Z,8.77
2022-12-29T00:05:30.194Z,8.76
2022-12-29T00:07:57.984Z,8.72
2022-12-29T00:10:25.732Z,8.69
2022-12-29T00:13:12.134Z,8.67
2022-12-29T00:15:40.073Z,8.65
2022-12-29T00:18:09.226Z,8.64
2022-12-29T00:20:56.735Z,8.64
2022-12-29T00:23:43.010Z,8.64
2022-12-29T00:26:35.812Z,8.68
2022-12-29T00:29:22.792Z,8.73
2022-12-29T00:32:10.905Z,8.82
2022-12-29T00:34:57.374Z,8.87
2022-12-29T00:37:45.162Z,8.92
2022-12-29T00:40:31.817Z,9.00
2022-12-29T00:43:18.166Z,9.06
2022-12-29T00:45:46.102Z,9.09
2022-12-29T00:48:13.830Z,9.08
2022-12-29T00:50:41.857Z,9.10
2022-12-29T00:53:09.598Z,9.12
2022-12-29T00:55:38.997Z,9.12
2022-12-29T00:58:06.748Z,9.14
2022-12-29T01:00:35.079Z,9.15
2022-12-29T01:03:03.747Z,9.13
2022-12-29T01:05:31.731Z,9.13
2022-12-29T01:07:59.411Z,9.15
2022-12-29T01:10:27.233Z,9.19
2022-12-29T01:12:55.149Z,9.19
2022-12-29T01:15:23.353Z,9.21
2022-12-29T01:17:51.103Z,9.23
2022-12-29T01:20:19.391Z,9.20
2022-12-29T01:22:48.187Z,9.16
2022-12-29T01:25:15.935Z,9.10
2022-12-29T01:27:43.633Z,9.03
2022-12-29T01:30:12.107Z,9.00
2022-12-29T01:32:39.847Z,8.93
2022-12-29T01:35:08.162Z,8.91
2022-12-29T01:37:36.466Z,8.88
2022-12-29T01:40:05.463Z,8.80
2022-12-29T01:42:34.050Z,8.71
2022-12-29T01:45:12.415Z,8.65
2022-12-29T01:47:49.448Z,8.61
2022-12-29T01:50:32.976Z,8.60
2022-12-29T01:53:12.408Z,8.58
2022-12-29T01:55:57.242Z,8.55
2022-12-29T01:58:33.418Z,8.52
2022-12-29T02:01:03.500Z,8.51
2022-12-29T02:03:33.646Z,8.47
2022-12-29T02:06:44.185Z,8.42
2022-12-29T02:09:12.246Z,8.38
2022-12-29T02:11:40.468Z,8.33
2022-12-29T02:14:13.535Z,8.29
2022-12-29T02:17:25.040Z,8.26
2022-12-29T02:20:36.425Z,8.21
2022-12-29T02:23:47.202Z,8.19
2022-12-29T02:26:36.139Z,8.13
2022-12-29T02:29:51.402Z,8.12
2022-12-29T02:32:22.290Z,8.12
2022-12-29T02:35:11.115Z,8.12
2022-12-29T02:38:18.083Z,8.15
2022-12-29T02:41:08.443Z,8.18
2022-12-29T02:44:25.923Z,8.21
2022-12-29T02:47:17.211Z,8.29
2022-12-29T02:49:59.020Z,8.41
2022-12-29T02:52:36.674Z,8.49
2022-12-29T02:55:05.187Z,8.56
2022-12-29T02:57:36.442Z,8.62
2022-12-29T03:00:13.120Z,8.67
2022-12-29T03:03:17.610Z,8.71
2022-12-29T03:06:10.720Z,8.77
2022-12-29T03:09:28.962Z,8.80
2022-12-29T03:12:15.369Z,8.84
2022-12-29T03:15:11.792Z,8.85
2022-12-29T03:17:55.658Z,8.89
2022-12-29T03:20:39.809Z,8.90
2022-12-29T03:23:09.539Z,8.91
2022-12-29T03:25:47.096Z,8.93
2022-12-29T03:28:23.360Z,8.97
2022-12-29T03:30:51.971Z,9.03
2022-12-29T03:33:27.952Z,9.07
2022-12-29T03:36:04.026Z,9.11
2022-12-29T03:38:45.046Z,9.14
2022-12-29T03:41:20.812Z,9.18
2022-12-29T03:43:48.623Z,9.21
2022-12-29T03:46:16.505Z,9.25
2022-12-29T03:48:44.473Z,9.27
2022-12-29T03:51:12.277Z,9.26
2022-12-29T03:53:40.456Z,9.27
2022-12-29T03:56:09.299Z,9.34
2022-12-29T03:58:37.084Z,9.34
2022-12-29T04:01:11.524Z,9.35
2022-12-29T04:03:39.641Z,9.37
2022-12-29T04:06:08.703Z,9.40
2022-12-29T04:08:48.992Z,9.41
2022-12-29T04:11:16.884Z,9.42
2022-12-29T04:13:46.622Z,9.42
2022-12-29T04:16:18.102Z,9.44
2022-12-29T04:18:46.627Z,9.43
2022-12-29T04:21:14.423Z,9.42
2022-12-29T04:23:43.755Z,9.42
2022-12-29T04:26:12.223Z,9.41
2022-12-29T04:28:59.745Z,9.43
2022-12-29T04:31:36.386Z,9.43
2022-12-29T04:34:04.370Z,9.42
2022-12-29T04:36:32.393Z,9.38
2022-12-29T04:39:01.137Z,9.31
2022-12-29T04:41:29.084Z,9.24
2022-12-29T04:43:56.854Z,9.17
2022-12-29T04:46:48.212Z,9.10
2022-12-29T04:49:34.905Z,9.09
2022-12-29T04:52:21.007Z,9.08
2022-12-29T04:54:48.922Z,9.07
2022-12-29T04:57:20.342Z,9.06
2022-12-29T04:59:52.289Z,9.06
2022-12-29T05:02:20.472Z,9.05
2022-12-29T05:04:51.000Z,9.06
2022-12-29T05:07:20.082Z,9.09
2022-12-29T05:09:49.555Z,9.13
2022-12-29T05:12:17.271Z,9.15
2022-12-29T05:15:07.419Z,9.20
2022-12-29T05:17:35.707Z,9.26
2022-12-29T05:20:06.329Z,9.28
2022-12-29T05:22:35.089Z,9.30
2022-12-29T05:25:03.106Z,9.29
2022-12-29T05:27:33.642Z,9.22
2022-12-29T05:30:12.296Z,9.12
2022-12-29T05:32:40.362Z,9.06
2022-12-29T05:35:09.695Z,9.01
2022-12-29T05:37:38.033Z,8.98
2022-12-29T05:40:07.164Z,8.92
2022-12-29T05:42:36.021Z,8.87
2022-12-29T05:45:25.766Z,8.81
2022-12-29T05:48:05.013Z,8.77
2022-12-29T05:51:05.357Z,8.77
2022-12-29T05:53:48.512Z,8.75
2022-12-29T05:56:17.269Z,8.70
2022-12-29T05:58:47.073Z,8.64
2022-12-29T06:01:15.047Z,8.56
2022-12-29T06:03:48.122Z,8.49
2022-12-29T06:06:16.978Z,8.44
2022-12-29T06:08:45.395Z,8.40
2022-12-29T06:11:13.653Z,8.36
2022-12-29T06:13:45.945Z,8.32
2022-12-29T06:16:14.084Z,8.28
2022-12-29T06:18:43.352Z,8.22
2022-12-29T06:21:11.183Z,8.17
2022-12-29T06:23:38.992Z,8.14
2022-12-29T06:26:06.793Z,8.10
2022-12-29T06:28:34.592Z,8.04
2022-12-29T06:31:03.913Z,7.99
2022-12-29T06:33:31.814Z,7.95
2022-12-29T06:35:59.581Z,7.93
2022-12-29T06:38:27.401Z,7.89
2022-12-29T06:40:55.138Z,7.85
2022-12-29T06:43:22.812Z,7.83
2022-12-29T06:46:00.003Z,7.79
2022-12-29T06:48:27.763Z,7.74
2022-12-29T06:50:55.447Z,7.72
2022-12-29T06:53:23.190Z,7.70
2022-12-29T06:55:51.495Z,7.66
2022-12-29T06:58:19.692Z,7.62
2022-12-29T07:00:47.784Z,7.58
2022-12-29T07:03:15.715Z,7.54
2022-12-29T07:05:43.803Z,7.51
2022-12-29T07:08:11.651Z,7.48
2022-12-29T07:10:39.615Z,7.46
2022-12-29T07:13:08.751Z,7.48
2022-12-29T07:15:38.782Z,7.48
2022-12-29T07:18:06.615Z,7.45
2022-12-29T07:20:34.566Z,7.45
2022-12-29T07:23:04.031Z,7.45
2022-12-29T07:25:31.802Z,7.44
2022-12-29T07:27:59.549Z,7.42
2022-12-29T07:30:27.468Z,7.39
2022-12-29T07:32:55.234Z,7.38
2022-12-29T07:35:23.265Z,7.38
2022-12-29T07:37:51.382Z,7.37
2022-12-29T07:40:19.143Z,7.36
2022-12-29T07:42:46.886Z,7.33
2022-12-29T07:45:17.062Z,7.30
2022-12-29T07:47:57.635Z,7.27
2022-12-29T07:50:25.333Z,7.24
2022-12-29T07:52:53.071Z,7.23
2022-12-29T07:55:20.788Z,7.22
2022-12-29T07:57:48.742Z,7.22
2022-12-29T08:00:17.092Z,7.26
2022-12-29T08:02:44.912Z,7.26
2022-12-29T08:05:13.093Z,7.28
2022-12-29T08:07:40.881Z,7.28
2022-12-29T08:10:08.811Z,7.26
2022-12-29T08:12:36.832Z,7.26
2022-12-29T08:15:07.389Z,7.27
2022-12-29T08:17:35.853Z,7.28
2022-12-29T08:20:05.717Z,7.28
2022-12-29T08:22:33.528Z,7.28
2022-12-29T08:25:01.394Z,7.29
2022-12-29T08:27:29.156Z,7.29
2022-12-29T08:29:57.186Z,7.31
2022-12-29T08:32:24.939Z,7.32
2022-12-29T08:34:52.709Z,7.33
2022-12-29T08:37:23.927Z,7.36
2022-12-29T08:39:55.255Z,7.38
2022-12-29T08:42:23.048Z,7.40
2022-12-29T08:44:51.386Z,7.44
2022-12-29T08:47:19.102Z,7.55
2022-12-29T08:49:46.774Z,7.63
2022-12-29T08:52:14.524Z,7.73
2022-12-29T08:54:42.303Z,7.86
2022-12-29T08:57:10.239Z,7.99
2022-12-29T08:59:43.705Z,8.08
2022-12-29T09:02:16.365Z,8.17
2022-12-29T09:04:46.803Z,8.19
2022-12-29T09:07:14.647Z,8.20
2022-12-29T09:09:42.367Z,8.22
2022-12-29T09:12:10.393Z,8.26
2022-12-29T09:14:38.224Z,8.30
2022-12-29T09:17:24.740Z,8.32
2022-12-29T09:19:52.676Z,8.33
2022-12-29T09:22:20.559Z,8.32
2022-12-29T09:24:48.340Z,8.32
2022-12-29T09:27:16.165Z,8.30
2022-12-29T09:29:44.089Z,8.27
2022-12-29T09:32:18.206Z,8.18
2022-12-29T09:34:46.423Z,8.13
2022-12-29T09:37:14.203Z,8.12
2022-12-29T09:39:41.959Z,8.09
2022-12-29T09:42:24.878Z,8.05
2022-12-29T09:45:22.479Z,8.02
2022-12-29T09:47:51.862Z,8.04
2022-12-29T09:50:31.524Z,8.07
2022-12-29T09:53:13.957Z,8.07
2022-12-29T09:55:57.137Z,8.14
2022-12-29T09:58:37.332Z,8.23
2022-12-29T10:01:27.258Z,8.30
2022-12-29T10:03:59.044Z,8.31
2022-12-29T10:06:50.180Z,8.35
2022-12-29T10:10:04.062Z,8.39
2022-12-29T10:13:26.530Z,8.41
2022-12-29T10:16:21.076Z,8.40
2022-12-29T10:19:31.209Z,8.33
2022-12-29T10:22:28.216Z,8.25
2022-12-29T10:24:58.013Z,8.20
2022-12-29T10:27:26.040Z,8.12
2022-12-29T10:29:57.158Z,8.05
2022-12-29T10:32:52.853Z,8.01
2022-12-29T10:35:30.764Z,7.99
2022-12-29T10:38:11.397Z,8.00
2022-12-29T10:40:50.424Z,8.05
2022-12-29T10:43:31.567Z,8.10
2022-12-29T10:46:07.949Z,8.16
2022-12-29T10:48:36.577Z,8.24
2022-12-29T10:51:09.585Z,8.28
2022-12-29T10:53:48.703Z,8.31
2022-12-29T10:56:25.784Z,8.36
2022-12-29T10:59:00.817Z,8.43
2022-12-29T11:01:41.102Z,8.51
2022-12-29T11:05:03.342Z,8.56
2022-12-29T11:07:32.923Z,8.56
2022-12-29T11:10:25.790Z,8.55
2022-12-29T11:13:02.450Z,8.56
2022-12-29T11:15:42.242Z,8.53
2022-12-29T11:18:38.019Z,8.49
2022-12-29T11:21:43.149Z,8.49
2022-12-29T11:24:30.702Z,8.51
2022-12-29T11:27:20.514Z,8.51
2022-12-29T11:29:49.718Z,8.47
2022-12-29T11:32:29.090Z,8.42
2022-12-29T11:34:59.875Z,8.40
2022-12-29T11:37:39.615Z,8.39
2022-12-29T11:40:22.218Z,8.38
2022-12-29T11:42:56.228Z,8.40
2022-12-29T11:45:28.600Z,8.42
2022-12-29T11:48:06.494Z,8.46
2022-12-29T11:50:39.887Z,8.50
2022-12-29T11:53:21.853Z,8.55
2022-12-29T11:56:18.109Z,8.62
2022-12-29T11:58:45.938Z,8.65
2022-12-29T12:01:25.196Z,8.65
2022-12-29T12:04:17.055Z,8.61
2022-12-29T12:07:14.035Z,8.59
2022-12-29T12:10:03.318Z,8.56
2022-12-29T12:12:54.465Z,8.56
2022-12-29T12:15:43.374Z,8.55
2022-12-29T12:18:38.617Z,8.55
2022-12-29T12:21:21.492Z,8.58
2022-12-29T12:24:16.101Z,8.64
2022-12-29T12:26:59.218Z,8.72
2022-12-29T12:29:42.409Z,8.79
2022-12-29T12:32:46.655Z,8.85
2022-12-29T12:35:25.362Z,8.95
2022-12-29T12:38:38.111Z,9.00
2022-12-29T12:41:30.724Z,9.07
2022-12-29T12:44:50.092Z,9.16
2022-12-29T12:47:46.377Z,9.15
2022-12-29T12:50:40.030Z,9.09
2022-12-29T12:53:21.772Z,9.02
2022-12-29T12:56:08.542Z,9.00
2022-12-29T12:59:09.972Z,8.98
2022-12-29T13:02:08.035Z,8.98
2022-12-29T13:05:00.219Z,9.02
2022-12-29T13:08:05.185Z,8.99
2022-12-29T13:10:47.032Z,8.93
2022-12-29T13:13:37.405Z,8.94
2022-12-29T13:16:15.010Z,8.99
2022-12-29T13:19:07.674Z,9.08
2022-12-29T13:22:12.920Z,9.12
2022-12-29T13:24:46.924Z,9.21
2022-12-29T13:27:25.357Z,9.23
2022-12-29T13:30:16.653Z,9.22
2022-12-29T13:33:21.067Z,9.26
2022-12-29T13:36:13.715Z,9.23
2022-12-29T13:38:49.633Z,9.20
2022-12-29T13:41:31.469Z,9.21
2022-12-29T13:44:03.542Z,9.22
2022-12-29T13:46:41.067Z,9.22
2022-12-29T13:49:19.506Z,9.18
2022-12-29T13:52:06.582Z,9.17
2022-12-29T13:55:20.471Z,9.19
2022-12-29T13:58:05.096Z,9.19
2022-12-29T14:01:23.700Z,9.22
2022-12-29T14:03:55.625Z,9.24
2022-12-29T14:06:29.331Z,9.30
2022-12-29T14:09:02.011Z,9.32
2022-12-29T14:11:37.846Z,9.26
2022-12-29T14:14:22.882Z,9.22
2022-12-29T14:16:51.329Z,9.18
2022-12-29T14:19:29.690Z,9.17
2022-12-29T14:22:05.156Z,9.17
2022-12-29T14:24:35.975Z,9.16
2022-12-29T14:27:13.122Z,9.11
2022-12-29T14:29:41.034Z,9.04
2022-12-29T14:32:27.540Z,8.97
2022-12-29T14:34:58.802Z,8.88
2022-12-29T14:37:33.755Z,8.82
2022-12-29T14:40:27.877Z,8.76
2022-12-29T14:42:58.349Z,8.66
2022-12-29T14:45:30.882Z,8.61
2022-12-29T14:47:58.783Z,8.61
2022-12-29T14:50:43.591Z,8.57
2022-12-29T14:53:52.369Z,8.55
2022-12-29T14:56:27.281Z,8.52
2022-12-29T14:59:03.609Z,8.48
2022-12-29T15:01:45.956Z,8.43
2022-12-29T15:04:21.641Z,8.41
2022-12-29T15:06:51.155Z,8.37
2022-12-29T15:09:26.113Z,8.38
2022-12-29T15:12:38.320Z,8.38
2022-12-29T15:15:24.965Z,8.37
2022-12-29T15:17:54.366Z,8.38
2022-12-29T15:20:28.676Z,8.37
2022-12-29T15:23:12.806Z,8.35
2022-12-29T15:26:09.007Z,8.32
2022-12-29T15:28:47.378Z,8.27
2022-12-29T15:31:30.386Z,8.21
2022-12-29T15:34:13.180Z,8.15
2022-12-29T15:36:42.622Z,8.10
2022-12-29T15:39:31.468Z,8.05
2022-12-29T15:42:27.365Z,8.01
2022-12-29T15:45:09.552Z,7.97
2022-12-29T15:47:39.842Z,7.97
2022-12-29T15:50:35.029Z,7.96
2022-12-29T15:53:10.336Z,7.94
2022-12-29T15:55:43.448Z,7.93
2022-12-29T15:58:26.264Z,7.89
2022-12-29T16:01:02.681Z,7.84
2022-12-29T16:03:43.180Z,7.80
2022-12-29T16:06:35.528Z,7.77
2022-12-29T16:09:15.473Z,7.76
2022-12-29T16:11:59.523Z,7.76
2022-12-29T16:14:46.424Z,7.73
2022-12-29T16:17:20.526Z,7.66
2022-12-29T16:20:00.409Z,7.59
2022-12-29T16:22:40.833Z,7.59
2022-12-29T16:25:28.492Z,7.60
2022-12-29T16:27:56.654Z,7.59
2022-12-29T16:30:33.899Z,7.61
2022-12-29T16:33:06.058Z,7.58
2022-12-29T16:35:50.923Z,7.49
2022-12-29T16:38:22.837Z,7.45
2022-12-29T16:40:56.516Z,7.39
2022-12-29T16:43:35.993Z,7.33
2022-12-29T16:46:24.593Z,7.30
2022-12-29T16:48:58.568Z,7.24
2022-12-29T16:51:37.425Z,7.20
2022-12-29T16:54:06.029Z,7.18
2022-12-29T16:56:37.283Z,7.16
2022-12-29T16:59:17.078Z,7.13
2022-12-29T17:01:46.106Z,7.08
2022-12-29T17:04:15.274Z,7.05
2022-12-29T17:06:43.197Z,7.02
2022-12-29T17:09:29.507Z,7.04
2022-12-29T17:12:08.639Z,7.04
2022-12-29T17:14:44.809Z,7.00
2022-12-29T17:17:32.564Z,6.95
2022-12-29T17:20:31.657Z,6.92
2022-12-29T17:23:00.376Z,6.90
2022-12-29T17:25:39.224Z,6.87
2022-12-29T17:28:20.342Z,6.82
2022-12-29T17:30:48.557Z,6.79
2022-12-29T17:33:21.429Z,6.74
2022-12-29T17:35:53.356Z,6.72
2022-12-29T17:38:30.687Z,6.73
2022-12-29T17:40:59.514Z,6.81
2022-12-29T17:43:32.995Z,6.88
2022-12-29T17:46:07.899Z,6.96
2022-12-29T17:48:35.767Z,7.02
2022-12-29T17:51:03.849Z,6.98
2022-12-29T17:53:31.975Z,6.91
2022-12-29T17:55:59.773Z,6.84
2022-12-29T17:58:31.678Z,6.78
2022-12-29T18:01:02.543Z,6.69
2022-12-29T18:03:36.165Z,6.66
2022-12-29T18:06:08.042Z,6.59
2022-12-29T18:08:36.978Z,6.53
2022-12-29T18:11:20.526Z,6.45
2022-12-29T18:13:48.459Z,6.40
2022-12-29T18:16:16.264Z,6.34
2022-12-29T18:18:44.740Z,6.31
2022-12-29T18:21:21.080Z,6.29
2022-12-29T18:23:49.313Z,6.26
2022-12-29T18:26:31.710Z,6.21
2022-12-29T18:29:00.007Z,6.18
2022-12-29T18:31:31.821Z,6.19
2022-12-29T18:34:05.022Z,6.17
2022-12-29T18:36:32.866Z,6.19
2022-12-29T18:39:00.647Z,6.19
2022-12-29T18:41:29.982Z,6.20
2022-12-29T18:43:59.839Z,6.22
2022-12-29T18:46:27.955Z,6.21
2022-12-29T18:52:13.733Z,6.18
2022-12-29T18:54:41.634Z,6.15
2022-12-29T18:57:09.473Z,6.11
2022-12-29T18:59:37.279Z,6.08
2022-12-29T19:02:05.119Z,6.01
2022-12-29T19:04:33.009Z,5.96
2022-12-29T19:07:00.770Z,5.92
2022-12-29T19:09:28.760Z,5.90
2022-12-29T19:11:56.480Z,5.87
2022-12-29T19:14:24.209Z,5.85
2022-12-29T19:16:52.213Z,5.85
2022-12-29T19:19:20.010Z,5.87
2022-12-29T19:21:47.729Z,5.88
2022-12-29T19:24:15.587Z,5.88
2022-12-29T19:26:43.544Z,5.84
2022-12-29T19:29:15.945Z,5.81
2022-12-29T19:31:44.280Z,5.75
2022-12-29T19:34:15.858Z,5.73
2022-12-29T19:36:45.618Z,5.71
2022-12-29T19:39:14.004Z,5.68
2022-12-29T19:41:41.865Z,5.74
2022-12-29T19:44:09.588Z,5.83
2022-12-29T19:46:37.331Z,5.89
2022-12-29T19:49:05.192Z,5.98
2022-12-29T19:51:33.036Z,6.06
2022-12-29T19:54:00.757Z,6.07
2022-12-29T19:56:28.497Z,6.06
2022-12-29T19:58:57.663Z,5.99
2022-12-29T20:01:26.240Z,5.90
2022-12-29T20:03:54.217Z,5.85
2022-12-29T20:06:21.990Z,5.77
2022-12-29T20:08:49.703Z,5.71
2022-12-29T20:11:18.898Z,5.68
2022-12-29T20:13:47.967Z,5.66
2022-12-29T20:16:19.345Z,5.62
2022-12-29T20:18:47.699Z,5.59
2022-12-29T20:21:20.809Z,5.57
2022-12-29T20:23:51.067Z,5.51
2022-12-29T20:26:24.382Z,5.44
2022-12-29T20:28:53.008Z,5.39
2022-12-29T20:31:24.647Z,5.39
2022-12-29T20:33:53.237Z,5.33
2022-12-29T20:36:28.437Z,5.28
2022-12-29T20:38:59.118Z,5.27
2022-12-29T20:41:27.240Z,5.26
2022-12-29T20:43:55.020Z,5.24
2022-12-29T20:46:31.937Z,5.21
2022-12-29T20:49:03.557Z,5.17
2022-12-29T20:51:59.362Z,5.14
2022-12-29T20:54:21.106Z,5.11
2022-12-29T20:56:49.345Z,5.10
2022-12-29T20:59:27.356Z,5.05
2022-12-29T21:01:57.373Z,5.06
2022-12-29T21:04:26.003Z,5.07
2022-12-29T21:06:54.229Z,5.07
2022-12-29T21:09:22.252Z,5.08
2022-12-29T21:11:50.074Z,5.03
2022-12-29T21:14:17.809Z,4.97
2022-12-29T21:16:47.030Z,4.96
2022-12-29T21:19:16.193Z,4.93
2022-12-29T21:21:43.897Z,4.91
2022-12-29T21:24:11.597Z,4.89
2022-12-29T21:26:39.407Z,4.87
2022-12-29T21:29:07.140Z,4.85
2022-12-29T21:31:36.571Z,4.84
2022-12-29T21:34:06.202Z,4.79
2022-12-29T21:36:34.594Z,4.76
2022-12-29T21:39:05.839Z,4.75
2022-12-29T21:41:33.769Z,4.75
2022-12-29T21:44:20.347Z,4.76
2022-12-29T21:46:48.404Z,4.71
2022-12-29T21:49:16.450Z,4.70
2022-12-29T21:51:50.335Z,4.69
2022-12-29T21:54:44.624Z,4.67
2022-12-29T21:57:35.861Z,4.65
2022-12-29T22:00:28.784Z,4.66
2022-12-29T22:03:22.594Z,4.63
2022-12-29T22:06:11.255Z,4.63
2022-12-29T22:08:58.811Z,4.66
2022-12-29T22:11:45.151Z,4.62
2022-12-29T22:14:12.929Z,4.61
2022-12-29T22:16:40.784Z,4.58
2022-12-29T22:19:10.469Z,4.57
2022-12-29T22:21:38.332Z,4.56
2022-12-29T22:24:06.614Z,4.57
2022-12-29T22:26:34.321Z,4.55
2022-12-29T22:29:02.162Z,4.56
2022-12-29T22:31:32.572Z,4.62
2022-12-29T22:34:03.066Z,4.59
2022-12-29T22:36:32.351Z,4.51
2022-12-29T22:39:00.126Z,4.45
2022-12-29T22:41:27.939Z,4.42
2022-12-29T22:43:55.738Z,4.40
2022-12-29T22:46:23.592Z,4.35
2022-12-29T22:48:51.364Z,4.33
2022-12-29T22:51:19.519Z,4.31
2022-12-29T22:53:51.155Z,4.31
2022-12-29T22:56:19.654Z,4.28
2022-12-29T22:58:49.974Z,4.24
2022-12-29T23:01:23.297Z,4.24
2022-12-29T23:03:51.594Z,4.26
2022-12-29T23:06:19.440Z,4.28
2022-12-29T23:08:47.929Z,4.31
2022-12-29T23:11:16.567Z,4.30
2022-12-29T23:13:44.997Z,4.28
2022-12-29T23:16:14.922Z,4.29
2022-12-29T23:18:44.936Z,4.31
2022-12-29T23:21:15.137Z,4.32
2022-12-29T23:24:03.897Z,4.34
2022-12-29T23:26:39.612Z,4.32
2022-12-29T23:29:11.809Z,4.31
2022-12-29T23:31:40.360Z,4.31
2022-12-29T23:34:10.952Z,4.32
2022-12-29T23:36:39.990Z,4.25
2022-12-29T23:39:11.060Z,4.21
2022-12-29T23:41:38.896Z,4.20
2022-12-29T23:44:06.666Z,4.23
2022-12-29T23:46:35.480Z,4.27
2022-12-29T23:49:03.340Z,4.27
2022-12-29T23:51:31.071Z,4.21
2022-12-29T23:53:58.813Z,4.12
2022-12-29T23:56:26.920Z,4.07
2022-12-29T23:58:54.872Z,4.01
